Main page
METAR-TAF:

METAR-TAF

Airports :

Cristiano Ronaldo International Airport

Funchal, Madeira, Portugal

latitude: 32-41-52N, longitude: 016-46-28W, elevation: 59 m

Current weather observation

The report was made 26 minutes ago, at 05:30 UTC
Wind 12 kt from the North, varying between North/Northwest and Northeast
Temperature 24°C
Humidity 47%
Pressure 1017 hPa
Visibility 10 km or more
Few clouds at a height of 1600 ft

METAR: LPMA 250530Z 01012KT 340V040 9999 FEW016 24/12 Q1017

Time: 06:56 (05:56 UTC)

Forecast

The report was made 56 minutes ago, at 05:00 UTC
Forecast valid from 25 at 06 UTC to 26 at 06 UTC
Wind 15 kt from the North/Northeast
Visibility 10 km or more
Scattered clouds at a height of 1500 ft
Temporary
from 25 at 06 UTC to 25 at 21 UTC
Wind 23 kt from the North/Northeast with gusts up to 33 kt
Probability 40% :
Temporary
from 25 at 06 UTC to 25 at 10 UTC
Broken clouds at a height of 1300 ft

TAF: LPMA 250500Z 2506/2606 02015KT 9999 SCT015 TEMPO 2506/2521 02023G33KT PROB40 TEMPO 2506/2510 BKN013

Weather observations and forecasts of more than 4000 airports (METAR and TAF reports).

The available stations are represented by yellow and red dots on the map.

Hover mouse over dot to see the name of the station.

Then click to see weather observations and forecasts.

To change the map : click on the green buttons with a black cross to zoom in, on the green button with a dash to zoom out, or on the green arrows for adjacent maps.


METAR-TAF: